Data for 01/29/2015

Time Sea-Level Adjusted Pressure Absolute Pressure Temperature Relative Humidity Dew Point   
(mb) (inHg) (mb) (inHg) (C) (F) (%) (C) (F)
00:05 1029 30.39 858 25.34 1.1 33.9 63 -5.3 22.5
00:10 1029 30.39 858 25.34 0.8 33.4 64 -5.2 22.7
00:15 1029 30.39 858 25.34 0.6 33.1 65 -5.1 22.8
00:20 1029 30.39 858 25.34 0.5 32.9 66 -5.2 22.7
00:25 1029 30.39 858 25.34 0.4 32.7 67 -5.1 22.9
00:30 1029 30.39 858 25.34 0.1 32.2 67 -5.3 22.4
00:35 1029 30.39 858 25.34 -0.1 31.9 68 -5.2 22.6
00:40 1029 30.39 858 25.34 -0.2 31.7 69 -5.2 22.6
00:45 1029 30.39 858 25.34 -0.1 31.9 67 -5.4 22.3
00:50 1029 30.39 858 25.34 0.1 32.2 67 -5.4 22.3
00:55 1029 30.39 858 25.34 -0 32 66 -5.7 21.8
01:00 1029 30.39 858 25.34 -0.2 31.7 66 -5.7 21.7
01:05 1029 30.39 858 25.34 -0.4 31.4 67 -5.8 21.6
01:10 1029 30.39 858 25.34 -0.2 31.6 67 -5.6 21.9
01:15 1029 30.39 858 25.34 -0.2 31.6 66 -5.9 21.4
01:20 1029 30.39 858 25.34 -0.3 31.5 66 -5.9 21.5
01:25 1029 30.39 858 25.34 -0.5 31.1 67 -5.8 21.5
01:30 1029 30.39 858 25.34 -0.6 30.9 69 -5.7 21.8
01:35 1029 30.39 858 25.34 -0.9 30.4 69 -5.8 21.5
01:40 1029 30.39 858 25.34 -1.1 30 70 -5.9 21.3
01:45 1029 30.39 858 25.34 -1.2 29.8 70 -6.1 21.1
01:50 1029 30.39 858 25.34 -1.2 29.8 69 -6.3 20.7
01:55 1029 30.39 858 25.34 -1.3 29.7 70 -6.1 20.9
02:00 1029 30.39 858 25.34 -1.2 29.8 71 -5.9 21.4
02:05 1029 30.39 858 25.34 -1.1 30 70 -6 21.3
02:10 1029 30.39 858 25.34 -1 30.2 69 -6 21.2
02:15 1029 30.39 858 25.34 -0.9 30.3 68 -6.1 21
02:20 1029 30.39 858 25.34 -0.9 30.4 68 -6 21.1
02:25 1029 30.39 858 25.34 -1 30.3 69 -6 21.1
02:30 1029 30.39 858 25.34 -1.1 30 69 -6.1 21
02:35 1029 30.39 858 25.34 -1.2 29.8 69 -6.2 20.9
02:40 1029 30.39 858 25.34 -1.3 29.6 69 -6.2 20.8
02:45 1029 30.39 858 25.34 -1.4 29.5 69 -6.3 20.6
02:50 1029 30.39 858 25.34 -1.5 29.3 70 -6.3 20.7
02:55 1029 30.39 858 25.34 -1.7 28.9 72 -6.2 20.9
03:00 1029 30.39 858 25.34 -1.6 29.1 71 -6.1 21
03:05 1029 30.39 858 25.34 -1.4 29.4 70 -6.2 20.8
03:10 1029 30.39 858 25.34 -1.4 29.5 70 -6.2 20.8
03:15 1029 30.39 858 25.34 -1.6 29.1 71 -6.3 20.6
03:20 1029 30.39 858 25.34 -1.7 29 71 -6.3 20.6
03:25 1029 30.39 858 25.34 -1.6 29.2 70 -6.4 20.5
03:30 1029 30.39 858 25.34 -1.6 29.2 70 -6.3 20.7
03:35 1029 30.39 858 25.34 -1.6 29.2 70 -6.3 20.7
03:40 1029 30.39 858 25.34 -1.6 29.1 70 -6.3 20.7
03:45 1029 30.39 858 25.34 -1.7 28.9 71 -6.3 20.6
03:50 1029 30.39 858 25.34 -1.9 28.6 72 -6.3 20.6
03:55 1029 30.39 858 25.34 -2 28.5 71 -6.5 20.3
04:00 1029 30.39 858 25.34 -2 28.3 71 -6.6 20.2
04:05 1029 30.39 858 25.34 -1.9 28.5 70 -6.6 20.1
04:10 1029 30.39 858 25.34 -1.9 28.7 71 -6.5 20.3
04:15 1029 30.39 858 25.34 -1.9 28.6 71 -6.5 20.2
04:20 1029 30.39 858 25.34 -1.8 28.8 69 -6.7 19.9
04:25 1029 30.39 858 25.34 -1.6 29.1 68 -6.8 19.8
04:30 1029 30.39 858 25.34 -1.7 28.9 69 -6.7 19.9
04:35 1029 30.39 858 25.34 -1.9 28.6 69 -6.8 19.7
04:40 1029 30.39 858 25.34 -1.9 28.6 69 -6.9 19.5
04:45 1029 30.39 858 25.34 -2 28.5 69 -7 19.5
04:50 1029 30.39 858 25.34 -2 28.4 69 -7 19.4
04:55 1029 30.39 858 25.34 -1.9 28.5 68 -7 19.3
05:00 1029 30.39 858 25.34 -2 28.3 68 -7.1 19.2
05:05 1029 30.39 858 25.34 -2 28.3 68 -7.1 19.2
05:10 1029 30.39 858 25.34 -2.1 28.2 68 -7.2 19
05:15 1029 30.39 858 25.34 -2.1 28.2 68 -7.2 19
05:20 1029 30.39 858 25.34 -2.1 28.1 68 -7.3 18.9
05:25 1029 30.39 858 25.34 -2.2 28.1 68 -7.3 18.9
05:30 1029 30.39 858 25.34 -2.3 27.9 68 -7.4 18.7
05:35 1029 30.39 858 25.34 -2.2 28 68 -7.3 18.8
05:40 1029 30.39 858 25.34 -2.2 28.1 68 -7.2 19
05:45 1029 30.39 858 25.34 -2.1 28.3 67 -7.3 18.8
05:50 1029 30.39 858 25.34 -2.3 27.8 68 -7.4 18.7
05:55 1029 30.39 858 25.34 -2.5 27.5 69 -7.5 18.5
06:00 1029 30.39 858 25.34 -2.5 27.6 68 -7.6 18.4
06:05 1029 30.39 858 25.34 -2.5 27.6 68 -7.5 18.4
06:10 1029 30.39 858 25.34 -2.4 27.7 68 -7.5 18.5
06:15 1029 30.39 858 25.34 -2.4 27.6 69 -7.4 18.6
06:20 1029 30.39 858 25.34 -2.5 27.5 69 -7.5 18.5
06:25 1029 30.39 858 25.34 -2.5 27.5 68 -7.5 18.4
06:30 1029 30.39 858 25.34 -2.2 28 67 -7.5 18.5
06:35 1029 30.39 858 25.34 -2.1 28.3 66 -7.6 18.3
06:40 1029 30.39 858 25.34 -1.7 29 65 -7.5 18.6
06:45 1029 30.39 858 25.34 -1.7 28.9 66 -7.3 18.8
06:50 1029 30.39 858 25.34 -1.9 28.6 66 -7.4 18.7
06:55 1029 30.39 858 25.34 -2.1 28.3 68 -7.2 19
07:00 1029 30.39 858 25.34 -2.1 28.2 67 -7.4 18.7
07:05 1029 30.39 858 25.34 -2.3 27.9 67 -7.5 18.5
07:10 1029 30.39 858 25.34 -2.2 28.1 67 -7.5 18.4
07:15 1029 30.39 858 25.34 -2.1 28.3 67 -7.3 18.8
07:20 1029 30.39 858 25.34 -2.3 27.8 68 -7.5 18.5
07:25 1029 30.39 858 25.34 -2.1 28.3 67 -7.4 18.7
07:30 1029 30.39 858 25.34 -2 28.4 67 -7.3 18.9
07:35 1029 30.39 858 25.34 -2.4 27.6 68 -7.5 18.4
07:40 1029 30.39 858 25.34 -2.7 27.1 70 -7.4 18.6
07:45 1029 30.39 858 25.34 -3 26.6 71 -7.5 18.4
07:50 1029 30.39 858 25.34 -3.1 26.3 71 -7.6 18.3
07:55 1029 30.39 858 25.34 -3.1 26.4 71 -7.7 18.2
08:00 1029 30.39 858 25.34 -3.2 26.2 72 -7.6 18.3
08:05 1029 30.39 858 25.34 -3.3 26 72 -7.6 18.3
08:10 1029 30.39 858 25.34 -3.3 26.1 72 -7.7 18.1
08:15 1029 30.39 858 25.34 -3.5 25.8 73 -7.7 18.2
08:20 1029 30.39 858 25.34 -3.5 25.7 72 -7.8 17.9
08:25 1029 30.39 858 25.34 -3.6 25.5 73 -7.7 18.1
08:30 1029 30.39 858 25.34 -3.7 25.3 73 -7.8 18
08:35 1029 30.39 858 25.34 -3.6 25.4 74 -7.5 18.4
08:40 1029 30.39 858 25.34 -3.3 26.1 72 -7.7 18.1
08:45 1029 30.39 858 25.34 -2.9 26.9 71 -7.5 18.5
08:50 1029 30.39 858 25.34 -2.9 26.8 72 -7.3 18.9
08:55 1029 30.39 858 25.34 -3 26.7 71 -7.4 18.6
09:00 1029 30.39 858 25.34 -3.2 26.3 71 -7.7 18.2
09:05 1029 30.39 858 25.34 -3.5 25.7 73 -7.6 18.4
09:10 1029 30.39 858 25.34 -3 26.6 70 -7.8 18
09:15 1029 30.39 858 25.34 -2.6 27.3 69 -7.6 18.4
09:20 1029 30.39 858 25.34 -2.3 27.9 68 -7.5 18.5
09:25 1029 30.39 858 25.34 -1.7 28.9 65 -7.4 18.6
09:30 1029 30.39 858 25.34 -1.3 29.7 64 -7.3 18.8
09:35 1029 30.39 858 25.34 -1.7 29 66 -7.3 18.9
09:40 1029 30.39 858 25.34 -2 28.4 66 -7.5 18.5
09:45 1029 30.39 859 25.37 -2.1 28.2 67 -7.4 18.7
09:50 1029 30.39 859 25.37 -2 28.4 67 -7.4 18.8
09:55 1029 30.39 859 25.37 -2.1 28.2 67 -7.5 18.4
10:00 1029 30.39 859 25.37 -1.9 28.6 65 -7.6 18.4
10:05 1029 30.39 859 25.37 -1.6 29.2 64 -7.5 18.4
10:10 1029 30.39 859 25.37 -1.5 29.3 63 -7.7 18.2
10:15 1029 30.39 859 25.37 -1.1 30.1 61 -7.7 18.1
10:20 1029 30.39 858 25.34 -0.4 31.2 59 -7.4 18.7
10:25 1029 30.39 858 25.34 -0.4 31.2 61 -7 19.5
10:30 1029 30.39 858 25.34 -0.9 30.4 63 -7.1 19.3
10:35 1029 30.39 858 25.34 -0.7 30.7 64 -6.8 19.8
10:40 1029 30.39 858 25.34 -0.7 30.8 63 -6.8 19.7
10:45 1029 30.39 858 25.34 -0.4 31.2 61 -7.1 19.3
10:50 1029 30.39 858 25.34 -0.2 31.6 62 -6.5 20.2
10:55 1029 30.39 858 25.34 0.3 32.6 60 -6.6 20.1
11:00 1029 30.39 859 25.37 0.3 32.5 60 -6.6 20.1
11:05 1029 30.39 858 25.34 0.5 33 58 -6.9 19.6
11:10 1029 30.39 858 25.34 1.1 34 56 -6.8 19.8
11:15 1029 30.39 858 25.34 1.8 35.2 52 -7 19.4
11:20 1029 30.39 858 25.34 2.2 35.9 51 -6.9 19.7
11:25 1029 30.39 858 25.34 2.2 36 52 -6.7 19.9
11:30 1029 30.39 858 25.34 2.6 36.6 51 -6.6 20.1
11:35 1029 30.39 858 25.34 2.5 36.4 51 -6.8 19.8
11:40 1029 30.39 858 25.34 2.7 36.8 51 -6.5 20.2
11:45 1029 30.39 858 25.34 2.5 36.5 50 -6.8 19.7
11:50 1029 30.39 858 25.34 2.5 36.5 51 -6.7 20
11:55 1029 30.39 858 25.34 3 37.4 50 -6.5 20.4
12:00 1029 30.39 858 25.34 3.9 39 46 -6.6 20.2
12:05 1029 30.39 858 25.34 3.6 38.4 49 -6.2 20.8
12:10 1029 30.39 858 25.34 4.2 39.6 45 -6.6 20.1
12:15 1029 30.39 858 25.34 4.5 40.2 45 -6.3 20.7
12:20 1029 30.39 858 25.34 4.4 40 44 -6.7 20
12:25 1029 30.39 858 25.34 4.2 39.6 45 -6.6 20.2
12:30 1029 30.39 858 25.34 4.1 39.3 46 -6.4 20.5
12:35 1028 30.36 858 25.34 3.7 38.7 48 -6.4 20.5
12:40 1028 30.36 858 25.34 3.7 38.6 47 -6.6 20.2
12:45 1028 30.36 857 25.31 4.3 39.8 46 -6.3 20.6
12:50 1028 30.36 857 25.31 4.9 40.8 44 -6.5 20.4
12:55 1028 30.36 857 25.31 5.2 41.4 43 -6.3 20.7
13:00 1028 30.36 857 25.31 4.7 40.4 44 -6.4 20.5
13:05 1028 30.36 857 25.31 4.5 40 44 -6.7 20
13:10 1028 30.36 857 25.31 4.7 40.5 44 -6.5 20.3
13:15 1028 30.36 857 25.31 5.3 41.6 42 -6.4 20.4
13:20 1028 30.36 857 25.31 5.9 42.5 41 -6.5 20.3
13:25 1028 30.36 857 25.31 6 42.8 42 -5.8 21.5
13:30 1028 30.36 857 25.31 6.1 43 40 -6.6 20.1
13:35 1028 30.36 857 25.31 6.1 42.9 41 -6.3 20.7
13:40 1028 30.36 857 25.31 5.6 42.1 42 -6.1 20.9
13:45 1027 30.33 857 25.31 6.3 43.4 39 -6.7 19.9
13:50 1027 30.33 857 25.31 6.3 43.3 40 -6.4 20.5
13:55 1027 30.33 857 25.31 6.3 43.3 39 -6.7 19.9
14:00 1027 30.33 856 25.28 6.8 44.2 39 -6 21.1
14:05 1027 30.33 856 25.28 7.1 44.8 38 -6.4 20.4
14:10 1027 30.33 856 25.28 7 44.6 38 -6.3 20.6
14:15 1027 30.33 856 25.28 7.1 44.7 40 -5.7 21.8
14:20 1027 30.33 856 25.28 7.2 45 39 -5.6 21.8
14:25 1027 30.33 856 25.28 6.3 43.3 42 -5.6 21.9
14:30 1027 30.33 856 25.28 6 42.9 44 -5.4 22.2
14:35 1027 30.33 856 25.28 6.3 43.4 44 -5.1 22.8
14:40 1027 30.33 856 25.28 5.8 42.4 47 -4.6 23.8
14:45 1027 30.33 856 25.28 6.2 43.1 44 -5.1 22.8
14:50 1027 30.33 856 25.28 6.6 43.9 47 -4 24.8
14:55 1027 30.33 856 25.28 5 41 47 -5.3 22.4
15:00 1027 30.33 856 25.28 4.8 40.6 48 -5.3 22.4
15:05 1026 30.3 856 25.28 4.9 40.8 47 -5.4 22.2
15:10 1026 30.3 856 25.28 5.2 41.3 48 -5 23
15:15 1026 30.3 856 25.28 4.8 40.7 47 -5.4 22.2
15:20 1026 30.3 856 25.28 4.8 40.7 49 -5.1 22.9
15:25 1026 30.3 855 25.25 5.8 42.4 46 -5 23
15:30 1026 30.3 855 25.25 5.6 42 46 -5.1 22.8
15:35 1026 30.3 855 25.25 5.5 41.8 44 -5.8 21.6
15:40 1026 30.3 855 25.25 5.6 42 47 -5 23.1
15:45 1026 30.3 855 25.25 5.2 41.3 44 -6.2 20.8
15:50 1026 30.3 855 25.25 6.3 43.4 41 -5.9 21.4
15:55 1026 30.3 855 25.25 6.5 43.6 41 -5.7 21.7
16:00 1026 30.3 855 25.25 6 42.8 42 -6 21.2
16:05 1026 30.3 855 25.25 5.4 41.7 45 -5.6 22
16:10 1026 30.3 855 25.25 5 41.1 43 -6.5 20.4
16:15 1026 30.3 855 25.25 5.4 41.7 43 -6.3 20.7
16:20 1026 30.3 855 25.25 6.1 42.9 40 -6.5 20.3
16:25 1026 30.3 855 25.25 6.6 43.8 38 -6.6 20.1
16:30 1026 30.3 855 25.25 6.7 44 39 -6.4 20.4
16:35 1026 30.3 855 25.25 5.9 42.6 41 -6.5 20.3
16:40 1026 30.3 855 25.25 6.3 43.4 39 -6.6 20.2
16:45 1026 30.3 855 25.25 6 42.8 41 -6.4 20.5
16:50 1026 30.3 855 25.25 6.1 43 40 -6.6 20.1
16:55 1026 30.3 855 25.25 6.2 43.1 40 -6.5 20.2
17:00 1026 30.3 855 25.25 6.4 43.6 40 -6.3 20.6
17:05 1026 30.3 855 25.25 6.6 43.9 39 -6.5 20.3
17:10 1026 30.3 855 25.25 6.5 43.8 40 -6.2 20.8
17:15 1026 30.3 855 25.25 6.2 43.2 41 -6 21.2
17:20 1026 30.3 855 25.25 5.8 42.4 43 -5.8 21.6
17:25 1026 30.3 855 25.25 5.4 41.7 44 -5.8 21.5
17:30 1026 30.3 855 25.25 5 41 46 -5.7 21.7
17:35 1026 30.3 855 25.25 4.9 40.9 46 -5.7 21.8
17:40 1026 30.3 855 25.25 4.7 40.5 46 -5.8 21.6
17:45 1026 30.3 855 25.25 4.7 40.5 47 -5.7 21.7
17:50 1026 30.3 855 25.25 4.5 40.2 48 -5.6 21.8
17:55 1026 30.3 855 25.25 4.5 40 48 -5.7 21.7
18:00 1026 30.3 855 25.25 4.3 39.8 47 -5.9 21.5
18:05 1026 30.3 855 25.25 4.2 39.6 50 -5.3 22.4
18:10 1026 30.3 855 25.25 4 39.1 51 -5.2 22.6
18:15 1026 30.3 855 25.25 3.6 38.5 53 -5 23
18:20 1026 30.3 855 25.25 3.3 38 55 -4.9 23.2
18:25 1026 30.3 855 25.25 3 37.5 57 -4.7 23.5
18:30 1026 30.3 855 25.25 2.7 36.9 58 -4.6 23.6
18:35 1026 30.3 855 25.25 2.7 36.9 60 -4.4 24.1
18:40 1026 30.3 855 25.25 2.2 36 62 -4.2 24.4
18:45 1026 30.3 855 25.25 1.9 35.4 63 -4.5 24
18:50 1026 30.3 855 25.25 1.6 34.9 63 -4.6 23.7
18:55 1026 30.3 855 25.25 1.6 34.8 63 -4.6 23.7
19:00 1026 30.3 855 25.25 1.1 34 64 -4.9 23.2
19:05 1026 30.3 855 25.25 0.9 33.7 64 -5.1 22.9
19:10 1026 30.3 855 25.25 0.8 33.5 64 -5.1 22.7
19:15 1026 30.3 855 25.25 0.7 33.3 65 -5.1 22.9
19:20 1026 30.3 855 25.25 0.4 32.6 68 -5 23.1
19:25 1026 30.3 855 25.25 -0.1 31.8 67 -5.5 22.2
19:30 1026 30.3 855 25.25 -0.1 31.9 65 -5.9 21.3
19:35 1026 30.3 855 25.25 0.2 32.3 63 -6.1 21
19:40 1026 30.3 855 25.25 0.2 32.4 65 -5.6 21.9
19:45 1026 30.3 855 25.25 0.2 32.4 66 -5.3 22.4
19:50 1026 30.3 855 25.25 0.3 32.5 65 -5.6 22
19:55 1026 30.3 855 25.25 0.3 32.6 64 -5.7 21.7
20:00 1026 30.3 855 25.25 0.4 32.7 63 -5.8 21.6
20:05 1026 30.3 855 25.25 0.4 32.7 63 -5.8 21.6
20:10 1026 30.3 855 25.25 0.5 32.8 62 -5.9 21.4
20:15 1026 30.3 855 25.25 0.5 32.8 62 -6 21.2
20:20 1026 30.3 855 25.25 0.1 32.1 65 -5.7 21.8
20:25 1026 30.3 855 25.25 -0.1 31.8 57 -7.7 18.2
20:30 1026 30.3 855 25.25 0.1 32.2 61 -6.6 20.2
20:35 1026 30.3 855 25.25 -0.1 31.8 62 -6.6 20.1
20:40 1026 30.3 855 25.25 -0.4 31.3 62 -6.9 19.7
20:45 1026 30.3 855 25.25 -0.4 31.2 62 -6.8 19.8
20:50 1026 30.3 855 25.25 -0.4 31.3 62 -6.9 19.5
20:55 1026 30.3 855 25.25 -0.5 31.2 61 -7 19.3
21:00 1026 30.3 855 25.25 -0.5 31.1 61 -7 19.3
21:05 1026 30.3 855 25.25 -0.5 31 61 -7.1 19.2
21:10 1026 30.3 855 25.25 -0.6 30.9 62 -7.1 19.2
21:15 1026 30.3 855 25.25 -0.7 30.7 62 -7.2 19
21:20 1026 30.3 855 25.25 -0.6 31 60 -7.4 18.6
21:25 1026 30.3 855 25.25 -0.5 31 60 -7.3 18.8
21:30 1026 30.3 855 25.25 -0.7 30.8 60 -7.4 18.7
21:35 1026 30.3 855 25.25 -0.6 31 57 -8.1 17.4
21:40 1026 30.3 855 25.25 -0.3 31.5 56 -8 17.5
21:45 1026 30.3 855 25.25 -0.3 31.5 55 -8.2 17.3
21:50 1026 30.3 855 25.25 -0.4 31.3 58 -7.7 18.2
21:55 1026 30.3 855 25.25 -0.6 30.9 59 -7.8 18
22:00 1026 30.3 856 25.28 -0.7 30.7 58 -8.1 17.5
22:05 1026 30.3 856 25.28 -0.7 30.7 58 -8.1 17.5
22:10 1026 30.3 856 25.28 -0.7 30.7 58 -8 17.6
22:15 1026 30.3 856 25.28 -0.8 30.5 59 -7.9 17.8
22:20 1026 30.3 856 25.28 -1.1 30.1 60 -7.9 17.9
22:25 1026 30.3 856 25.28 -1.3 29.6 60 -8.1 17.4
22:30 1026 30.3 856 25.28 -1.5 29.3 62 -7.9 17.9
22:35 1026 30.3 855 25.25 -1.8 28.8 61 -8.3 17.1
22:40 1026 30.3 855 25.25 -1.7 28.9 61 -8.3 17
22:45 1026 30.3 856 25.28 -1.7 29 60 -8.4 16.8
22:50 1026 30.3 855 25.25 -1.5 29.3 60 -8.3 17
22:55 1026 30.3 855 25.25 -1.3 29.7 59 -8.3 17.1
23:00 1026 30.3 855 25.25 -1.1 30 59 -8.1 17.5
23:05 1026 30.3 855 25.25 -1.2 29.8 60 -8 17.7
23:10 1026 30.3 855 25.25 -1.3 29.6 60 -8.2 17.3
23:15 1026 30.3 855 25.25 -1.2 29.8 59 -8.2 17.3
23:20 1026 30.3 855 25.25 -1.1 30 60 -8 17.7
23:25 1026 30.3 855 25.25 -1.3 29.7 61 -7.9 17.8
23:30 1026 30.3 855 25.25 -1.2 29.8 60 -8 17.6
23:35 1026 30.3 855 25.25 -1.4 29.5 61 -7.9 17.7
23:40 1026 30.3 855 25.25 -1.6 29.1 62 -8 17.6
23:45 1026 30.3 855 25.25 -1.7 28.9 63 -7.9 17.8
23:50 1026 30.3 855 25.25 -1.7 28.9 64 -7.7 18.1
23:55 1026 30.3 855 25.25 -1.9 28.7 64 -7.8 18
24:00 1026 30.3 855 25.25 -1.8 28.8 64 -7.7 18.1